LZIB/BTS METAR and TAF weather

Enter ICAO airport designator
Station Type Date Time Source
LZIB METAR 2020/07/08 02:00 UTC NOAA

LZIB 080200Z 01003KT CAVOK 10/08 Q1018


Station Type Date Time Source
LZIB Decoded METAR 2020/07/08 02:00 UTC NOAA

Bratislava Ivanka, Slovakia (LZIB) 48-12N 017-12E 142M
Jul 07, 2020 - 10:00 PM EDT / 2020.07.08 0200 UTC
Wind: from the N (010 degrees) at 3 MPH (3 KT):0
Visibility: greater than 7 mile(s):0
Temperature: 50 F (10 C)
Dew Point: 46 F (8 C)
Relative Humidity: 87%
Pressure (altimeter): 30.06 in. Hg (1018 hPa)
ob: LZIB 080200Z 01003KT CAVOK 10/08 Q1018
cycle: 2

Station Type Date Time Source
LZIB TAF 2020/07/07 18:37 UTC NOAA

TAF LZIB 071700Z 0718/0818 36010KT CAVOK
BECMG 0718/0720 VRB02KT
TEMPO 0723/0803 9999 FEW040
BECMG 0808/0810 24010KT

Example: see airport list